Time;durP1;ratioP1;P1;durP2;ratioP2;P2;SDS_P1;SDS_P2;PMS_P1;PMS_P2;Temp;Humidity;BMP_temperature;BMP_pressure;BME280_temperature;BME280_humidity;BME280_pressure;Samples;Min_cycle;Max_cycle;Signal;HPM_P1;HPM_P2
2022/01/23 00:00:55;;;;;;;35.85;19.80;;;6.10;99.90;;;;;;5071391;28;20088;-74
2022/01/23 00:03:21;;;;;;;40.22;21.20;;;6.20;99.90;;;;;;5104828;28;20020;-74
2022/01/23 00:05:48;;;;;;;33.67;20.70;;;6.20;99.90;;;;;;5086286;28;20027;-76
2022/01/23 00:08:18;;;;;;;42.03;22.35;;;6.10;99.90;;;;;;5070059;28;20335;-74
2022/01/23 00:10:44;;;;;;;36.25;20.88;;;6.20;99.90;;;;;;5086420;28;20083;-77
2022/01/23 00:13:22;;;;;;;38.55;21.38;;;6.30;99.90;;;;;;5069525;28;20027;-76
2022/01/23 00:18:33;;;;;;;40.53;20.50;;;6.20;99.90;;;;;;5089013;28;20059;-76
2022/01/23 00:20:59;;;;;;;36.03;19.90;;;6.20;99.90;;;;;;5068854;28;20028;-74
2022/01/23 00:31:41;;;;;;;34.53;19.38;;;6.30;99.90;;;;;;5054680;28;20024;-74
2022/01/23 00:34:07;;;;;;;35.10;19.98;;;6.50;99.90;;;;;;5085734;28;20031;-76
2022/01/23 00:36:35;;;;;;;31.38;18.90;;;6.50;99.90;;;;;;5086130;28;20021;-75
2022/01/23 00:39:01;;;;;;;35.33;19.48;;;6.40;99.90;;;;;;5087366;28;20084;-76
2022/01/23 00:41:27;;;;;;;36.03;19.85;;;6.40;99.90;;;;;;5085102;28;20317;-75
2022/01/23 00:43:54;;;;;;;35.60;20.00;;;6.40;99.90;;;;;;5083553;28;20078;-74
2022/01/23 00:46:31;;;;;;;36.70;19.38;;;6.40;99.90;;;;;;5089494;28;20342;-75
2022/01/23 00:49:24;;;;;;;41.85;21.20;;;6.30;99.90;;;;;;5103801;28;20051;-75
2022/01/23 00:51:45;;;;;;;38.40;20.30;;;6.40;99.90;;;;;;5088220;28;20020;-76
2022/01/23 00:54:11;;;;;;;35.67;20.42;;;6.40;99.90;;;;;;5103825;28;20352;-76
2022/01/23 00:56:37;;;;;;;38.33;20.60;;;6.40;99.90;;;;;;5103827;28;20043;-75
2022/01/23 00:59:03;;;;;;;39.83;19.65;;;6.40;99.90;;;;;;5085686;28;20034;-74
2022/01/23 01:01:29;;;;;;;35.15;18.80;;;6.40;99.90;;;;;;5085408;28;20024;-74
2022/01/23 01:03:55;;;;;;;37.63;19.90;;;6.40;99.90;;;;;;5103218;28;20219;-73
2022/01/23 01:06:21;;;;;;;34.05;19.77;;;6.40;99.90;;;;;;5084935;28;20030;-73
2022/01/23 01:08:48;;;;;;;31.98;18.45;;;6.30;99.90;;;;;;5103628;28;20024;-75
2022/01/23 01:14:23;;;;;;;34.85;20.58;;;6.10;99.90;;;;;;5088528;28;20246;-74
2022/01/23 01:16:59;;;;;;;36.67;20.27;;;6.10;99.90;;;;;;5088318;28;20017;-75
2022/01/23 01:30:37;;;;;;;33.63;20.23;;;6.20;99.90;;;;;;5102517;28;20051;-74
2022/01/23 01:33:20;;;;;;;35.40;20.33;;;6.20;99.90;;;;;;5093675;28;20024;-74
2022/01/23 01:35:55;;;;;;;33.90;20.05;;;6.20;99.90;;;;;;5090005;28;20012;-77
2022/01/23 01:38:21;;;;;;;33.28;19.15;;;6.20;99.90;;;;;;5103470;28;20024;-75
2022/01/23 01:40:47;;;;;;;34.65;18.52;;;6.20;99.90;;;;;;5085199;28;20294;-75
2022/01/23 01:43:13;;;;;;;31.13;19.65;;;6.40;99.90;;;;;;5100942;28;20016;-75
2022/01/23 01:45:41;;;;;;;36.90;20.38;;;6.30;99.90;;;;;;5068639;28;20035;-75
2022/01/23 01:48:06;;;;;;;34.58;20.85;;;6.30;99.90;;;;;;5085592;28;20055;-76
2022/01/23 01:50:33;;;;;;;32.97;19.92;;;6.20;99.90;;;;;;5084880;28;20204;-74
2022/01/23 01:53:00;;;;;;;31.92;19.38;;;6.20;99.90;;;;;;5103049;28;20089;-74
2022/01/23 01:55:30;;;;;;;35.47;19.92;;;6.20;99.90;;;;;;5103052;28;20193;-76
2022/01/23 01:58:02;;;;;;;34.10;19.60;;;6.10;99.90;;;;;;5103274;28;20024;-74
2022/01/23 02:08:42;;;;;;;32.60;19.23;;;6.40;99.90;;;;;;5087704;28;20051;-73
2022/01/23 02:11:14;;;;;;;29.70;18.38;;;6.40;99.90;;;;;;5102646;28;20032;-75
2022/01/23 02:13:57;;;;;;;33.65;18.98;;;6.40;99.90;;;;;;5085801;28;20318;-75
2022/01/23 02:16:41;;;;;;;31.70;18.25;;;6.40;99.90;;;;;;5085148;28;20031;-74
2022/01/23 02:52:43;;;;;;;25.48;16.00;;;6.40;99.90;;;;;;5091038;28;20024;-75
2022/01/23 02:55:23;;;;;;;23.65;16.20;;;6.40;99.90;;;;;;5090418;28;20016;-75
2022/01/23 02:57:57;;;;;;;26.92;18.23;;;6.40;99.90;;;;;;5090786;28;20036;-74
2022/01/23 03:00:27;;;;;;;23.05;14.65;;;6.40;99.90;;;;;;5106132;28;20087;-75
2022/01/23 03:03:01;;;;;;;24.10;16.73;;;6.40;99.90;;;;;;5105605;28;20021;-73
2022/01/23 03:08:27;;;;;;;21.48;14.93;;;6.30;99.90;;;;;;5089425;28;20227;-73
2022/01/23 03:11:14;;;;;;;28.38;16.45;;;6.50;99.90;;;;;;5076467;28;20230;-74
2022/01/23 03:13:46;;;;;;;25.20;14.68;;;6.50;99.90;;;;;;5090158;28;20319;-73
2022/01/23 03:30:15;;;;;;;28.67;16.55;;;6.40;99.90;;;;;;5089283;28;20249;-74
2022/01/23 03:32:45;;;;;;;23.92;16.02;;;6.30;99.90;;;;;;5089397;28;20040;-74
2022/01/23 03:35:12;;;;;;;30.35;18.40;;;6.30;99.90;;;;;;5087769;28;20016;-74
2022/01/23 03:37:37;;;;;;;32.63;18.75;;;6.30;99.90;;;;;;5105101;28;20027;-73
2022/01/23 03:40:05;;;;;;;29.63;18.50;;;6.40;99.90;;;;;;5104880;28;20258;-74
2022/01/23 03:42:34;;;;;;;26.17;18.58;;;6.30;99.90;;;;;;5070003;28;20031;-73
2022/01/23 03:50:30;;;;;;;21.33;14.18;;;6.30;99.90;;;;;;5089670;28;20024;-73
2022/01/23 03:52:56;;;;;;;21.65;13.77;;;6.40;99.90;;;;;;5086551;28;20047;-73
2022/01/23 03:55:22;;;;;;;22.52;14.77;;;6.40;99.90;;;;;;5104482;28;20024;-74
2022/01/23 03:57:47;;;;;;;24.48;14.95;;;6.40;99.90;;;;;;5086717;28;20311;-75
2022/01/23 04:00:16;;;;;;;25.55;16.02;;;6.40;99.90;;;;;;5104696;28;20098;-75
2022/01/23 04:02:42;;;;;;;23.13;16.17;;;6.40;99.90;;;;;;5086488;28;20024;-75
2022/01/23 04:05:08;;;;;;;25.90;16.88;;;6.40;99.90;;;;;;5104468;28;20083;-73
2022/01/23 04:07:36;;;;;;;25.52;18.25;;;6.30;99.90;;;;;;5104419;28;20023;-75
2022/01/23 04:10:02;;;;;;;27.42;17.92;;;6.30;99.90;;;;;;5086578;28;20055;-74
2022/01/23 04:15:40;;;;;;;27.42;17.85;;;6.30;99.90;;;;;;5089012;28;20084;-75
2022/01/23 04:21:01;;;;;;;23.58;16.88;;;6.30;99.90;;;;;;5089284;28;20020;-73
2022/01/23 04:34:38;;;;;;;26.42;17.15;;;6.20;99.90;;;;;;5062640;28;20017;-76
2022/01/23 04:45:26;;;;;;;20.55;13.55;;;5.90;99.90;;;;;;5060515;28;20024;-76
2022/01/23 05:04:34;;;;;;;21.25;14.45;;;6.10;99.90;;;;;;5068561;28;20212;-73
2022/01/23 05:07:02;;;;;;;23.33;16.13;;;6.10;99.90;;;;;;5065727;28;20017;-74
2022/01/23 05:09:29;;;;;;;23.65;16.15;;;6.10;99.90;;;;;;5083363;28;20031;-74
2022/01/23 05:12:00;;;;;;;22.42;15.82;;;6.00;99.90;;;;;;5082902;28;20044;-74
2022/01/23 05:14:33;;;;;;;25.73;16.42;;;5.80;99.90;;;;;;5065763;28;20048;-74
2022/01/23 05:16:59;;;;;;;23.85;16.50;;;5.70;99.90;;;;;;5065934;28;20029;-73
2022/01/23 05:19:25;;;;;;;24.98;17.02;;;5.80;99.90;;;;;;5065681;28;20020;-75
2022/01/23 05:22:06;;;;;;;28.13;17.27;;;5.80;99.90;;;;;;5074182;28;20028;-73
2022/01/23 05:24:37;;;;;;;21.38;13.82;;;5.70;99.90;;;;;;5094980;28;20040;-72
2022/01/23 05:27:06;;;;;;;21.90;15.18;;;5.80;99.90;;;;;;5099499;28;20075;-73
2022/01/23 05:29:33;;;;;;;20.42;13.55;;;5.80;99.90;;;;;;5079932;28;20020;-73
2022/01/23 05:31:58;;;;;;;22.52;14.30;;;5.80;99.90;;;;;;5110469;28;20023;-76
2022/01/23 05:34:25;;;;;;;20.73;14.57;;;5.80;99.90;;;;;;5092134;28;20016;-74
2022/01/23 05:36:51;;;;;;;22.60;14.85;;;5.80;99.90;;;;;;5103599;28;20012;-73
2022/01/23 05:39:21;;;;;;;20.23;12.80;;;5.90;99.90;;;;;;5103256;28;20024;-74
2022/01/23 05:41:47;;;;;;;21.45;13.02;;;6.00;99.90;;;;;;5085658;28;20016;-74
2022/01/23 05:44:13;;;;;;;20.65;13.23;;;6.00;99.90;;;;;;5085229;28;20095;-74
2022/01/23 05:46:39;;;;;;;23.02;13.75;;;6.00;99.90;;;;;;5101255;28;20031;-76
2022/01/23 05:49:05;;;;;;;22.40;13.98;;;5.80;99.90;;;;;;5103654;28;20062;-75
2022/01/23 05:51:31;;;;;;;22.02;14.25;;;5.70;99.90;;;;;;5068810;28;20027;-74
2022/01/23 05:53:57;;;;;;;44.20;14.18;;;5.80;99.90;;;;;;5106798;28;20214;-74
2022/01/23 05:56:23;;;;;;;23.67;14.27;;;5.80;99.90;;;;;;5088733;28;20069;-76
2022/01/23 05:58:48;;;;;;;20.55;14.15;;;5.80;99.90;;;;;;5089168;28;20016;-74
2022/01/23 06:01:14;;;;;;;23.45;14.57;;;5.80;99.90;;;;;;5107037;28;20085;-74
2022/01/23 06:03:40;;;;;;;28.02;14.45;;;5.80;99.90;;;;;;5106802;28;20109;-74
2022/01/23 06:06:05;;;;;;;22.98;14.85;;;5.80;99.90;;;;;;5106479;28;20500;-75
2022/01/23 06:08:31;;;;;;;19.77;14.32;;;5.80;99.90;;;;;;5106846;28;20110;-74
2022/01/23 06:10:57;;;;;;;27.48;14.93;;;5.80;99.90;;;;;;5106516;28;20113;-75
2022/01/23 06:13:25;;;;;;;22.77;14.40;;;5.80;99.90;;;;;;5106564;28;20227;-75
2022/01/23 06:15:52;;;;;;;19.55;13.85;;;5.80;99.90;;;;;;5106456;28;20016;-73
2022/01/23 06:18:18;;;;;;;19.77;13.98;;;5.90;99.90;;;;;;5088235;28;20020;-73
2022/01/23 06:20:44;;;;;;;21.58;13.10;;;5.90;99.90;;;;;;5106611;28;20083;-73
2022/01/23 06:23:10;;;;;;;20.40;14.52;;;6.00;99.90;;;;;;5088260;28;20227;-73
2022/01/23 06:25:37;;;;;;;17.30;12.77;;;6.00;99.90;;;;;;5105239;28;20024;-73
2022/01/23 06:28:05;;;;;;;21.33;14.50;;;6.10;99.90;;;;;;5106018;28;20051;-74
2022/01/23 06:30:32;;;;;;;21.08;14.35;;;6.00;99.90;;;;;;5088623;28;20333;-73
2022/01/23 06:32:58;;;;;;;22.33;14.75;;;5.90;99.90;;;;;;5106388;28;20064;-75
2022/01/23 06:35:24;;;;;;;21.02;14.05;;;5.80;99.90;;;;;;5106519;28;20040;-73
2022/01/23 06:37:50;;;;;;;19.52;12.82;;;5.90;99.90;;;;;;5087675;28;20020;-75
2022/01/23 06:40:16;;;;;;;19.75;13.30;;;5.90;99.90;;;;;;5088220;28;20024;-73
2022/01/23 06:42:41;;;;;;;18.63;12.73;;;5.90;99.90;;;;;;5088066;28;20058;-74
2022/01/23 06:45:07;;;;;;;21.42;12.43;;;5.80;99.90;;;;;;5088085;28;20188;-74
2022/01/23 06:47:33;;;;;;;25.42;13.40;;;5.70;99.90;;;;;;5103849;28;20050;-74
2022/01/23 06:49:59;;;;;;;24.17;13.57;;;5.60;99.90;;;;;;5106000;28;20047;-74
2022/01/23 06:52:24;;;;;;;21.17;12.88;;;5.60;99.90;;;;;;5106127;28;20023;-73
2022/01/23 06:54:50;;;;;;;22.67;13.52;;;5.70;99.90;;;;;;5105828;28;20027;-72
2022/01/23 06:57:16;;;;;;;20.20;12.63;;;5.80;99.90;;;;;;5087942;28;20023;-74
2022/01/23 06:59:42;;;;;;;23.25;12.48;;;5.70;99.90;;;;;;5105628;28;20020;-74
2022/01/23 07:02:08;;;;;;;16.65;12.02;;;5.60;99.90;;;;;;5105975;28;20101;-75
2022/01/23 07:04:34;;;;;;;17.48;11.38;;;5.60;99.90;;;;;;5087594;28;20020;-75
2022/01/23 07:07:00;;;;;;;18.55;11.40;;;5.70;99.90;;;;;;5105227;28;20027;-73
2022/01/23 07:09:25;;;;;;;17.70;12.02;;;5.80;99.90;;;;;;5087658;28;20031;-74
2022/01/23 07:11:51;;;;;;;16.65;10.93;;;5.80;99.90;;;;;;5086994;28;20032;-73
2022/01/23 07:14:17;;;;;;;19.58;11.10;;;5.70;99.90;;;;;;5105623;28;20084;-75
2022/01/23 07:16:43;;;;;;;17.75;11.32;;;5.60;99.90;;;;;;5087425;28;20246;-73
2022/01/23 07:19:08;;;;;;;20.83;11.55;;;5.60;99.90;;;;;;5105147;28;20087;-73
2022/01/23 07:21:34;;;;;;;16.77;11.00;;;5.50;99.90;;;;;;5105016;28;20053;-73
2022/01/23 07:24:00;;;;;;;17.80;10.50;;;5.50;99.90;;;;;;5070626;28;20046;-74
2022/01/23 07:26:27;;;;;;;18.98;10.55;;;5.50;99.90;;;;;;5103833;28;20196;-74
2022/01/23 07:28:56;;;;;;;17.08;10.40;;;5.50;99.90;;;;;;5103701;28;20073;-75
2022/01/23 07:31:43;;;;;;;15.10;9.93;;;5.60;99.90;;;;;;5087650;28;20200;-74
2022/01/23 07:34:10;;;;;;;15.73;9.57;;;5.60;99.90;;;;;;5076104;28;20212;-76
2022/01/23 07:36:37;;;;;;;17.52;9.50;;;5.60;99.90;;;;;;5070228;28;20020;-75
2022/01/23 07:39:04;;;;;;;15.05;10.18;;;5.70;99.90;;;;;;5070236;28;20023;-74
2022/01/23 07:41:30;;;;;;;17.80;9.88;;;5.70;99.90;;;;;;5070261;28;20027;-75
2022/01/23 07:43:58;;;;;;;71.63;15.13;;;5.70;99.90;;;;;;5104634;28;20050;-76
2022/01/23 07:46:24;;;;;;;31.10;12.55;;;5.60;99.90;;;;;;5104699;28;20024;-73
2022/01/23 07:48:49;;;;;;;22.42;12.00;;;5.50;99.90;;;;;;5103181;28;20031;-75
2022/01/23 07:51:15;;;;;;;35.65;11.32;;;5.50;99.90;;;;;;5104706;28;20016;-76
2022/01/23 07:53:41;;;;;;;23.10;11.10;;;5.50;99.90;;;;;;5104846;28;20027;-73
2022/01/23 07:56:07;;;;;;;22.20;11.23;;;5.40;99.90;;;;;;5069794;28;20031;-72
2022/01/23 07:58:32;;;;;;;17.75;10.80;;;5.40;99.90;;;;;;5104335;28;20295;-72
2022/01/23 08:00:58;;;;;;;26.67;10.95;;;5.30;99.90;;;;;;5104718;28;20024;-74
2022/01/23 08:03:24;;;;;;;28.38;12.32;;;5.30;99.90;;;;;;5104698;28;20311;-74
2022/01/23 08:05:50;;;;;;;46.53;12.88;;;5.20;99.90;;;;;;5104335;28;20031;-75
2022/01/23 08:08:16;;;;;;;24.40;10.15;;;5.30;99.90;;;;;;5104076;28;20055;-74
2022/01/23 08:10:41;;;;;;;25.83;12.43;;;5.30;99.90;;;;;;5104490;28;20020;-73
2022/01/23 08:13:07;;;;;;;32.17;12.23;;;5.40;99.90;;;;;;5069593;28;20024;-73
2022/01/23 08:15:34;;;;;;;28.55;12.00;;;5.40;99.90;;;;;;5103896;28;20053;-74
2022/01/23 08:18:04;;;;;;;34.67;12.82;;;5.50;99.90;;;;;;5104094;28;20026;-73
2022/01/23 08:20:32;;;;;;;32.60;11.65;;;5.40;99.90;;;;;;5086013;28;20289;-73
2022/01/23 08:22:59;;;;;;;16.70;11.45;;;5.30;99.90;;;;;;5104025;28;20019;-74
2022/01/23 08:25:25;;;;;;;22.70;10.85;;;5.20;99.90;;;;;;5086644;28;20015;-72
2022/01/23 08:27:51;;;;;;;18.73;11.10;;;5.20;99.90;;;;;;5090472;28;20063;-74
2022/01/23 08:30:16;;;;;;;15.38;10.57;;;5.30;99.90;;;;;;5083423;28;20058;-74
2022/01/23 08:32:42;;;;;;;15.10;9.90;;;5.40;99.90;;;;;;5083847;28;20052;-73
2022/01/23 08:35:08;;;;;;;22.52;11.20;;;5.50;99.90;;;;;;5083621;28;20076;-73
2022/01/23 08:37:34;;;;;;;16.05;10.70;;;5.60;99.90;;;;;;5065751;28;20032;-74
2022/01/23 08:40:00;;;;;;;14.77;10.07;;;5.60;99.90;;;;;;5083199;28;20084;-75
2022/01/23 08:42:26;;;;;;;17.70;10.13;;;5.60;99.90;;;;;;5083384;28;20027;-72
2022/01/23 08:44:53;;;;;;;29.70;12.75;;;5.60;99.90;;;;;;5067014;28;20203;-74
2022/01/23 08:47:21;;;;;;;21.63;11.40;;;5.60;99.90;;;;;;5086694;28;20023;-74
2022/01/23 08:49:48;;;;;;;24.73;12.38;;;5.50;99.90;;;;;;5066815;28;20036;-73
2022/01/23 08:52:17;;;;;;;13.77;10.25;;;5.40;99.90;;;;;;5069700;28;20024;-75
2022/01/23 08:54:45;;;;;;;60.58;13.18;;;5.50;99.90;;;;;;5086419;28;20087;-73
2022/01/23 08:57:11;;;;;;;19.55;10.93;;;5.60;99.90;;;;;;5065842;28;20028;-75
2022/01/23 08:59:37;;;;;;;19.20;10.82;;;5.40;99.90;;;;;;5083028;28;20051;-74
2022/01/23 09:02:03;;;;;;;24.13;10.90;;;5.40;99.90;;;;;;5083347;28;20265;-74
2022/01/23 09:04:29;;;;;;;29.83;11.40;;;5.50;99.90;;;;;;5065819;28;20028;-75
2022/01/23 09:06:55;;;;;;;143.65;21.35;;;5.40;99.90;;;;;;5083119;28;20051;-73
2022/01/23 09:09:23;;;;;;;29.52;11.05;;;5.30;99.90;;;;;;5083300;28;20310;-74
2022/01/23 09:12:02;;;;;;;14.88;10.60;;;5.40;99.90;;;;;;5064796;28;20021;-77
2022/01/23 09:14:28;;;;;;;14.32;9.73;;;5.50;99.90;;;;;;5083534;28;20318;-72
2022/01/23 09:16:55;;;;;;;15.70;11.18;;;5.50;99.90;;;;;;5083284;28;20020;-73
2022/01/23 09:19:22;;;;;;;15.38;10.45;;;5.50;99.90;;;;;;5065328;28;20078;-74
2022/01/23 09:21:49;;;;;;;19.00;11.15;;;5.50;99.90;;;;;;5065182;28;20024;-76
2022/01/23 09:24:17;;;;;;;17.40;11.40;;;5.40;99.90;;;;;;5073445;28;20072;-74
2022/01/23 09:26:45;;;;;;;19.15;10.50;;;5.40;99.90;;;;;;5098977;28;20059;-74
2022/01/23 09:29:15;;;;;;;19.92;11.10;;;5.40;99.90;;;;;;5100520;28;20020;-73
2022/01/23 09:31:49;;;;;;;18.48;11.25;;;5.30;99.90;;;;;;5083217;28;20016;-74
2022/01/23 09:34:17;;;;;;;15.30;11.48;;;5.40;99.90;;;;;;5081991;28;20039;-74
2022/01/23 09:36:43;;;;;;;18.65;10.60;;;5.50;99.90;;;;;;5096404;28;20192;-74
2022/01/23 09:39:14;;;;;;;15.27;10.55;;;5.60;99.90;;;;;;5090579;28;20028;-76
2022/01/23 09:41:46;;;;;;;13.45;9.52;;;5.60;99.90;;;;;;5090065;28;20133;-75
2022/01/23 09:44:14;;;;;;;13.57;9.70;;;5.60;99.90;;;;;;5107441;28;20032;-74
2022/01/23 09:46:42;;;;;;;14.60;9.68;;;5.80;99.90;;;;;;5088849;28;20020;-74
2022/01/23 09:49:09;;;;;;;19.35;9.75;;;5.80;99.90;;;;;;5107219;28;20034;-74
2022/01/23 09:51:39;;;;;;;17.85;11.40;;;5.90;99.90;;;;;;5087122;28;20070;-75
2022/01/23 09:54:04;;;;;;;14.23;9.82;;;5.90;99.90;;;;;;5107304;28;20027;-73
2022/01/23 09:56:33;;;;;;;14.38;9.98;;;5.90;99.90;;;;;;5107081;28;20207;-75
2022/01/23 09:59:00;;;;;;;19.10;11.02;;;5.80;99.90;;;;;;5088596;28;20036;-74
2022/01/23 10:01:28;;;;;;;18.45;10.63;;;5.80;99.90;;;;;;5072240;28;20024;-74
2022/01/23 10:03:53;;;;;;;18.02;10.30;;;5.70;99.90;;;;;;5106586;28;20334;-74
2022/01/23 10:06:19;;;;;;;14.48;9.90;;;5.70;99.90;;;;;;5106925;28;20024;-73
2022/01/23 10:08:46;;;;;;;12.43;9.93;;;5.80;99.90;;;;;;5106533;28;20215;-74
2022/01/23 10:11:13;;;;;;;26.70;11.70;;;5.80;99.90;;;;;;5106284;28;20226;-75
2022/01/23 10:13:41;;;;;;;20.33;10.75;;;6.00;99.90;;;;;;5106807;28;20048;-73
2022/01/23 10:16:07;;;;;;;15.35;10.77;;;5.90;99.90;;;;;;5088826;28;20095;-76
2022/01/23 10:18:33;;;;;;;14.55;10.07;;;5.80;99.90;;;;;;5106625;28;20325;-74
2022/01/23 10:21:00;;;;;;;16.35;9.77;;;5.70;99.90;;;;;;5070813;28;20193;-76
2022/01/23 10:23:26;;;;;;;15.10;10.52;;;5.70;99.90;;;;;;5068416;28;20060;-73
2022/01/23 10:25:53;;;;;;;17.40;10.95;;;5.60;99.90;;;;;;5084906;28;20016;-72
2022/01/23 10:28:28;;;;;;;15.75;10.68;;;5.60;99.90;;;;;;5086111;28;20052;-73
2022/01/23 10:30:57;;;;;;;15.95;9.70;;;5.60;99.90;;;;;;5088600;28;20087;-74
2022/01/23 10:33:28;;;;;;;14.30;9.75;;;5.80;99.90;;;;;;5106570;28;20023;-74
2022/01/23 10:36:05;;;;;;;14.63;10.30;;;5.80;99.90;;;;;;5106199;28;20129;-74
2022/01/23 10:38:50;;;;;;;15.60;9.02;;;5.90;99.90;;;;;;5089257;28;20459;-74
2022/01/23 10:41:32;;;;;;;15.43;8.85;;;5.90;99.90;;;;;;5087538;28;20343;-73
2022/01/23 10:50:03;;;;;;;12.25;8.70;;;5.60;99.90;;;;;;5092816;28;20036;-74
2022/01/23 10:52:36;;;;;;;15.10;9.70;;;5.50;99.90;;;;;;5086087;28;20016;-75
2022/01/23 10:55:24;;;;;;;17.23;8.25;;;5.40;99.90;;;;;;5106122;28;20322;-74
2022/01/23 10:57:53;;;;;;;13.32;9.13;;;5.40;99.90;;;;;;5090437;28;20020;-74
2022/01/23 11:00:33;;;;;;;14.50;9.57;;;5.40;99.90;;;;;;5087829;28;20035;-73
2022/01/23 11:03:11;;;;;;;14.30;8.63;;;5.30;99.90;;;;;;5071209;28;20020;-76
2022/01/23 11:05:39;;;;;;;15.18;9.57;;;5.40;99.90;;;;;;5087846;28;20056;-72
2022/01/23 11:08:25;;;;;;;15.63;8.70;;;5.40;99.90;;;;;;5085991;28;20028;-75
2022/01/23 11:10:54;;;;;;;16.33;10.10;;;5.40;99.90;;;;;;5089969;28;20028;-72
2022/01/23 11:19:24;;;;;;;13.75;8.70;;;5.30;99.90;;;;;;5087548;28;20023;-74
2022/01/23 11:21:52;;;;;;;17.17;9.52;;;5.30;99.90;;;;;;5101921;28;20024;-74
2022/01/23 11:24:19;;;;;;;16.08;10.10;;;5.20;99.90;;;;;;5102588;28;20223;-73
2022/01/23 11:26:45;;;;;;;16.00;10.15;;;5.20;99.90;;;;;;5084269;28;20416;-73
2022/01/23 11:29:13;;;;;;;13.73;8.70;;;5.20;99.90;;;;;;5104619;28;20020;-72
2022/01/23 11:31:40;;;;;;;14.30;9.82;;;5.10;99.90;;;;;;5069468;28;20365;-74
2022/01/23 11:34:07;;;;;;;19.23;9.63;;;5.10;99.90;;;;;;5086568;28;20030;-73
2022/01/23 11:36:33;;;;;;;19.13;9.70;;;5.10;99.90;;;;;;5086391;28;20016;-73
2022/01/23 11:39:07;;;;;;;14.57;9.70;;;5.20;99.90;;;;;;5085978;28;20051;-73
2022/01/23 11:50:50;;;;;;;14.32;9.85;;;5.30;99.90;;;;;;5074692;28;20214;-72
2022/01/23 11:56:37;;;;;;;17.27;10.93;;;5.40;99.90;;;;;;5061935;28;20328;-73
2022/01/23 11:59:25;;;;;;;17.55;11.90;;;5.30;99.90;;;;;;5103987;28;20020;-73
2022/01/23 12:02:20;;;;;;;17.55;10.75;;;5.30;99.90;;;;;;5086181;28;20091;-75
2022/01/23 12:05:19;;;;;;;19.23;11.18;;;5.30;99.90;;;;;;5090848;28;20028;-76
2022/01/23 12:08:07;;;;;;;20.42;11.93;;;5.40;99.90;;;;;;5074220;28;20120;-73
2022/01/23 12:10:49;;;;;;;21.40;11.65;;;5.50;99.90;;;;;;5072738;28;20028;-73
2022/01/23 12:16:33;;;;;;;17.52;13.07;;;5.70;99.90;;;;;;5089119;28;20039;-74
2022/01/23 12:19:19;;;;;;;20.77;13.13;;;5.80;99.90;;;;;;5089330;28;20140;-74
2022/01/23 12:21:46;;;;;;;18.77;12.75;;;5.70;99.90;;;;;;5089085;28;20016;-75
2022/01/23 12:24:15;;;;;;;22.45;14.32;;;5.60;99.90;;;;;;5103820;28;20023;-75
2022/01/23 12:26:42;;;;;;;19.77;14.00;;;5.50;99.90;;;;;;5051964;28;20078;-74
2022/01/23 12:29:25;;;;;;;24.25;15.75;;;5.60;99.90;;;;;;5100682;28;20055;-75
2022/01/23 12:32:16;;;;;;;21.73;14.73;;;5.70;99.90;;;;;;5103842;28;20024;-75
2022/01/23 12:34:51;;;;;;;25.70;15.48;;;5.70;99.90;;;;;;5089368;28;20306;-74
2022/01/23 12:37:17;;;;;;;26.58;16.00;;;5.80;99.90;;;;;;5103541;28;20087;-75
2022/01/23 12:39:43;;;;;;;24.77;16.10;;;5.80;99.90;;;;;;5069162;28;20043;-75
2022/01/23 12:42:09;;;;;;;27.45;15.85;;;6.00;99.90;;;;;;5103256;28;20103;-74
2022/01/23 12:44:37;;;;;;;23.77;15.40;;;5.90;99.60;;;;;;5085614;28;20031;-74
2022/01/23 12:47:16;;;;;;;26.92;16.75;;;5.80;99.80;;;;;;5049197;28;20095;-74
2022/01/23 12:49:48;;;;;;;23.70;16.27;;;5.80;99.80;;;;;;5081977;28;20028;-74
2022/01/23 12:52:15;;;;;;;;;;;5.80;99.90;;;;;;5081392;28;20024;-74
2022/01/23 12:54:57;;;;;;;22.17;15.85;;;5.70;99.90;;;;;;5081554;28;19904;-75
2022/01/23 12:57:37;;;;;;;27.92;17.70;;;5.70;99.90;;;;;;5065719;28;20027;-74
2022/01/23 13:00:15;;;;;;;24.73;15.80;;;5.70;99.90;;;;;;5081642;28;20027;-75
2022/01/23 13:02:46;;;;;;;27.65;16.60;;;5.70;99.90;;;;;;5082306;28;20242;-73
2022/01/23 13:05:15;;;;;;;32.08;18.10;;;5.60;99.90;;;;;;5082919;28;20027;-73
2022/01/23 13:07:50;;;;;;;27.95;16.77;;;5.60;99.90;;;;;;5083594;28;20099;-74
2022/01/23 13:10:29;;;;;;;24.58;15.63;;;5.80;99.90;;;;;;5081554;28;20027;-76
2022/01/23 13:13:07;;;;;;;23.13;15.95;;;6.00;99.70;;;;;;5066833;28;20020;-75
2022/01/23 13:18:46;;;;;;;32.17;16.05;;;6.10;99.30;;;;;;5081129;28;20239;-75
2022/01/23 13:27:00;;;;;;;30.08;16.63;;;6.00;99.20;;;;;;5102562;28;20091;-74
2022/01/23 13:32:20;;;;;;;37.50;18.05;;;6.00;99.70;;;;;;5084074;28;20031;-76
2022/01/23 13:34:50;;;;;;;27.38;17.63;;;5.90;99.70;;;;;;5093968;28;20036;-74
2022/01/23 13:37:22;;;;;;;30.52;16.52;;;6.00;99.70;;;;;;5093150;28;20017;-75
2022/01/23 13:39:58;;;;;;;26.15;17.38;;;5.90;99.70;;;;;;5090360;28;20196;-74
2022/01/23 13:42:48;;;;;;;25.48;17.42;;;5.90;99.80;;;;;;5106895;28;20065;-73
2022/01/23 13:57:31;;;;;;;31.35;19.40;;;6.00;99.40;;;;;;5075162;28;20028;-76
2022/01/23 13:59:51;;;;;;;31.38;21.33;;;6.10;99.40;;;;;;5074157;28;20022;-74
2022/01/23 14:02:34;;;;;;;34.45;20.95;;;6.10;99.60;;;;;;5084971;28;20031;-74
2022/01/23 14:05:11;;;;;;;33.15;21.80;;;6.10;99.80;;;;;;5069540;28;20265;-76
2022/01/23 14:07:39;;;;;;;36.72;23.35;;;5.90;99.80;;;;;;5084975;28;20152;-74
2022/01/23 14:10:20;;;;;;;35.78;24.83;;;5.90;99.70;;;;;;5084849;28;20043;-75
2022/01/23 14:12:48;;;;;;;37.25;23.52;;;5.80;99.90;;;;;;5084869;28;20020;-75
2022/01/23 14:15:17;;;;;;;41.85;23.33;;;6.00;99.80;;;;;;5088557;28;20027;-75
2022/01/23 14:17:54;;;;;;;38.67;25.08;;;6.10;99.70;;;;;;5088811;28;20058;-77
2022/01/23 14:20:20;;;;;;;35.92;24.02;;;6.10;99.40;;;;;;5087696;28;20024;-75
2022/01/23 14:22:47;;;;;;;39.95;26.02;;;6.00;99.50;;;;;;5106410;28;20020;-74
2022/01/23 14:25:19;;;;;;;37.40;25.58;;;5.90;99.80;;;;;;5106029;28;20066;-74
2022/01/23 14:27:59;;;;;;;41.78;26.35;;;6.00;99.90;;;;;;5071352;28;20051;-75
2022/01/23 14:30:27;;;;;;;40.33;25.50;;;6.00;99.40;;;;;;5095579;28;20244;-74
2022/01/23 14:32:54;;;;;;;38.10;25.13;;;6.10;99.50;;;;;;5105021;28;20211;-74
2022/01/23 14:35:29;;;;;;;46.15;25.48;;;6.10;99.30;;;;;;5104720;28;20087;-76
2022/01/23 14:38:10;;;;;;;38.40;26.40;;;6.10;99.40;;;;;;5089311;28;20032;-74
2022/01/23 14:40:37;;;;;;;47.55;27.02;;;6.20;99.40;;;;;;5105450;28;20047;-76
2022/01/23 14:43:12;;;;;;;38.33;26.52;;;6.20;99.30;;;;;;5105725;28;20020;-74
2022/01/23 14:45:42;;;;;;;40.65;26.65;;;6.10;99.40;;;;;;5105932;28;20020;-73
2022/01/23 14:48:09;;;;;;;40.45;26.60;;;5.90;99.70;;;;;;5095476;28;20058;-76
2022/01/23 14:50:39;;;;;;;43.92;28.08;;;5.70;99.90;;;;;;5088115;28;20064;-75
2022/01/23 14:53:13;;;;;;;43.85;28.75;;;5.70;99.90;;;;;;5087930;28;20031;-73
2022/01/23 14:55:42;;;;;;;42.55;26.15;;;5.70;99.90;;;;;;5104276;28;20091;-74
2022/01/23 14:58:12;;;;;;;42.10;26.50;;;5.70;99.90;;;;;;5105835;28;20028;-74
2022/01/23 15:00:39;;;;;;;35.55;25.15;;;5.80;99.90;;;;;;5088045;28;20329;-75
2022/01/23 15:03:06;;;;;;;37.40;25.05;;;5.80;99.90;;;;;;5070820;28;20039;-75
2022/01/23 15:05:34;;;;;;;34.95;24.23;;;5.80;99.80;;;;;;5087354;28;20069;-75
2022/01/23 15:08:00;;;;;;;41.90;27.42;;;5.70;99.90;;;;;;5087638;28;20019;-74
2022/01/23 15:10:27;;;;;;;43.92;26.10;;;5.70;99.90;;;;;;5087506;28;20040;-74
2022/01/23 15:12:53;;;;;;;46.78;27.23;;;5.90;99.90;;;;;;5087423;28;20114;-75
2022/01/23 15:15:18;;;;;;;44.20;28.35;;;6.00;99.90;;;;;;5087311;28;20024;-73
2022/01/23 15:17:44;;;;;;;42.28;27.05;;;6.10;99.80;;;;;;5105279;28;20215;-74
2022/01/23 15:20:11;;;;;;;41.67;28.08;;;6.20;99.70;;;;;;5104978;28;20024;-74
2022/01/23 15:22:36;;;;;;;38.35;24.90;;;6.10;99.60;;;;;;5087127;28;20298;-74
2022/01/23 15:25:06;;;;;;;43.03;27.13;;;6.10;99.70;;;;;;5086097;28;20080;-77
2022/01/23 15:27:32;;;;;;;41.15;27.83;;;6.00;99.80;;;;;;5087176;28;20031;-74
2022/01/23 15:30:00;;;;;;;41.45;26.60;;;6.00;99.90;;;;;;5090243;28;20066;-74
2022/01/23 15:32:26;;;;;;;44.08;28.98;;;5.90;99.90;;;;;;5104440;28;20060;-75
2022/01/23 15:34:52;;;;;;;39.08;25.95;;;5.80;99.90;;;;;;5104637;28;20027;-76
2022/01/23 15:37:18;;;;;;;40.72;26.77;;;5.80;99.90;;;;;;5105085;28;20044;-74
2022/01/23 15:39:45;;;;;;;41.28;27.83;;;5.80;99.90;;;;;;5103903;28;20062;-75
2022/01/23 15:42:11;;;;;;;40.83;27.70;;;5.80;99.90;;;;;;5104139;28;20024;-76
2022/01/23 15:44:37;;;;;;;39.55;27.08;;;5.80;99.90;;;;;;5103676;28;20028;-75
2022/01/23 15:47:04;;;;;;;41.55;26.45;;;5.70;99.90;;;;;;5096857;28;20039;-75
2022/01/23 15:49:30;;;;;;;42.92;27.33;;;5.60;99.90;;;;;;5104881;28;20061;-74
2022/01/23 15:51:56;;;;;;;39.53;26.50;;;5.60;99.90;;;;;;5086239;28;20036;-74